Time,TemperatureF,DewpointF,PressureIn,WindDirection,WindDirectionDegrees,WindSpeedMPH,WindSpeedGustMPH,Humidity,HourlyPrecipIn,Conditions,Clouds,dailyrainin,SoftwareType,DateUTC
2014-08-28 00:02:00,69.8,69.2,30.06,ENE,65,3.0,3.0,98,0.00,,,0.00,Wunderground v.1.15,2014-08-28 05:02:00,
2014-08-28 00:08:00,69.7,69.1,30.06,ENE,63,3.0,3.0,98,0.00,,,0.00,Wunderground v.1.15,2014-08-28 05:08:00,
2014-08-28 00:14:00,69.7,69.1,30.06,ENE,59,3.0,3.0,98,0.00,,,0.00,Wunderground v.1.15,2014-08-28 05:14:00,
2014-08-28 00:20:00,69.7,69.1,30.06,ENE,74,4.0,5.0,98,0.00,,,0.00,Wunderground v.1.15,2014-08-28 05:20:00,
2014-08-28 00:26:00,69.8,69.2,30.06,East,82,4.0,5.0,98,0.00,,,0.00,Wunderground v.1.15,2014-08-28 05:26:00,
2014-08-28 00:32:00,69.9,69.3,30.06,East,84,4.0,4.0,98,0.00,,,0.00,Wunderground v.1.15,2014-08-28 05:32:00,
2014-08-28 00:38:00,69.9,69.3,30.06,East,93,4.0,4.0,98,0.00,,,0.00,Wunderground v.1.15,2014-08-28 05:38:00,
2014-08-28 00:44:00,70.0,69.4,30.06,East,86,4.0,4.0,98,0.00,,,0.00,Wunderground v.1.15,2014-08-28 05:44:00,
2014-08-28 00:50:00,69.9,69.3,30.06,ENE,70,4.0,4.0,98,0.00,,,0.00,Wunderground v.1.15,2014-08-28 05:50:00,
2014-08-28 00:56:00,69.9,69.3,30.06,ENE,76,5.0,5.0,98,0.00,,,0.00,Wunderground v.1.15,2014-08-28 05:56:00,
2014-08-28 01:02:00,69.9,69.3,30.05,ENE,74,5.0,6.0,98,0.00,,,0.00,Wunderground v.1.15,2014-08-28 06:02:00,
2014-08-28 01:08:00,69.9,69.3,30.05,East,91,6.0,7.0,98,0.00,,,0.00,Wunderground v.1.15,2014-08-28 06:08:00,
2014-08-28 01:14:00,70.0,69.4,30.05,East,96,6.0,8.0,98,0.00,,,0.00,Wunderground v.1.15,2014-08-28 06:14:00,
2014-08-28 01:20:00,70.0,69.4,30.04,East,98,7.0,8.0,98,0.00,,,0.00,Wunderground v.1.15,2014-08-28 06:20:00,
2014-08-28 01:26:00,70.1,69.5,30.04,East,89,7.0,9.0,98,0.00,,,0.00,Wunderground v.1.15,2014-08-28 06:26:00,
2014-08-28 01:32:00,70.2,69.6,30.03,East,96,9.0,9.0,98,0.00,,,0.00,Wunderground v.1.15,2014-08-28 06:32:00,
2014-08-28 01:38:00,70.2,69.6,30.03,East,92,9.0,10.0,98,0.00,,,0.00,Wunderground v.1.15,2014-08-28 06:38:00,
2014-08-28 01:44:00,70.2,69.6,30.02,East,91,8.0,10.0,98,0.00,,,0.00,Wunderground v.1.15,2014-08-28 06:44:00,
2014-08-28 01:50:00,70.2,69.6,30.02,ENE,74,8.0,8.0,98,0.00,,,0.00,Wunderground v.1.15,2014-08-28 06:50:00,
2014-08-28 01:56:00,70.1,69.5,30.02,East,82,7.0,8.0,98,0.00,,,0.00,Wunderground v.1.15,2014-08-28 06:56:00,
2014-08-28 02:02:00,70.0,69.4,30.02,ENE,65,7.0,8.0,98,0.00,,,0.00,Wunderground v.1.15,2014-08-28 07:02:00,
2014-08-28 02:08:00,70.0,69.4,30.01,ENE,68,7.0,8.0,98,0.00,,,0.00,Wunderground v.1.15,2014-08-28 07:08:00,
2014-08-28 02:14:00,70.0,69.4,30.01,ENE,69,7.0,9.0,98,0.00,,,0.00,Wunderground v.1.15,2014-08-28 07:14:00,
2014-08-28 02:20:00,70.0,69.4,30.01,ENE,64,8.0,8.0,98,0.00,,,0.00,Wunderground v.1.15,2014-08-28 07:20:00,
2014-08-28 02:26:00,70.0,69.7,30.01,ENE,60,7.0,9.0,99,0.00,,,0.00,Wunderground v.1.15,2014-08-28 07:26:00,
2014-08-28 02:32:00,70.0,69.7,30.01,ENE,58,7.0,8.0,99,0.00,,,0.00,Wunderground v.1.15,2014-08-28 07:32:00,
2014-08-28 02:38:00,70.0,69.7,30.01,NE,41,6.0,8.0,99,0.00,,,0.00,Wunderground v.1.15,2014-08-28 07:38:00,
2014-08-28 02:44:00,69.8,69.2,30.01,NE,50,4.0,7.0,98,0.00,,,0.00,Wunderground v.1.15,2014-08-28 07:44:00,
2014-08-28 02:50:00,69.7,69.1,30.02,ENE,66,1.0,1.0,98,0.00,,,0.00,Wunderground v.1.15,2014-08-28 07:50:00,
2014-08-28 02:56:00,69.7,69.4,30.02,West,281,1.0,7.0,99,0.00,,,0.00,Wunderground v.1.15,2014-08-28 07:56:00,
2014-08-28 03:02:00,69.7,69.4,30.02,WNW,293,1.0,1.0,99,0.00,,,0.00,Wunderground v.1.15,2014-08-28 08:02:00,
2014-08-28 03:08:00,69.7,69.4,30.02,SE,128,1.0,1.0,99,0.00,,,0.01,Wunderground v.1.15,2014-08-28 08:08:00,
2014-08-28 03:14:00,69.7,69.4,30.02,NE,39,1.0,3.0,99,0.08,,,0.02,Wunderground v.1.15,2014-08-28 08:14:00,
2014-08-28 03:20:00,69.7,69.4,30.02,NE,52,2.0,2.0,99,0.08,,,0.02,Wunderground v.1.15,2014-08-28 08:20:00,
2014-08-28 03:26:00,69.7,69.4,30.01,ENE,64,2.0,3.0,99,0.05,,,0.02,Wunderground v.1.15,2014-08-28 08:26:00,
2014-08-28 03:32:00,69.7,69.4,30.01,ENE,64,3.0,4.0,99,0.00,,,0.03,Wunderground v.1.15,2014-08-28 08:32:00,
2014-08-28 03:38:00,69.8,69.5,30.01,ENE,68,5.0,7.0,99,0.00,,,0.03,Wunderground v.1.15,2014-08-28 08:38:00,
2014-08-28 03:44:00,69.9,69.6,30.02,SE,132,4.0,5.0,99,0.00,,,0.03,Wunderground v.1.15,2014-08-28 08:44:00,
2014-08-28 03:50:00,70.0,69.7,30.02,SSE,152,3.0,3.0,99,0.00,,,0.03,Wunderground v.1.15,2014-08-28 08:50:00,
2014-08-28 03:56:00,70.0,69.7,30.02,SE,134,3.0,5.0,99,0.30,,,0.05,Wunderground v.1.15,2014-08-28 08:56:00,
2014-08-28 04:02:00,70.0,69.7,30.02,SE,143,4.0,11.0,99,0.35,,,0.08,Wunderground v.1.15,2014-08-28 09:02:00,
2014-08-28 04:08:00,70.0,69.7,30.02,SE,142,4.0,11.0,99,0.24,,,0.10,Wunderground v.1.15,2014-08-28 09:08:00,
2014-08-28 04:14:00,70.0,69.7,30.03,SE,131,4.0,11.0,99,0.24,,,0.13,Wunderground v.1.15,2014-08-28 09:14:00,